createdAt,value
2023-01-20T00:05:45.546Z,99774.75
2023-01-20T00:15:46.858Z,99789.25
2023-01-20T00:25:48.148Z,99796.16
2023-01-20T00:35:49.414Z,99803.06
2023-01-20T00:45:50.674Z,99818.41
2023-01-20T00:55:51.982Z,99831.09
2023-01-20T01:05:53.297Z,99834.31
2023-01-20T01:15:54.591Z,99851.34
2023-01-20T01:25:55.919Z,99862.19
2023-01-20T01:35:57.175Z,99875.75
2023-01-20T01:45:58.477Z,99888.69
2023-01-20T01:55:59.816Z,99887.00
2023-01-20T02:06:01.206Z,99894.00
2023-01-20T02:16:04.265Z,99902.56
2023-01-20T02:26:05.554Z,99914.59
2023-01-20T02:36:06.805Z,99924.06
2023-01-20T02:46:08.142Z,99923.06
2023-01-20T02:56:09.419Z,99937.66
2023-01-20T03:06:10.701Z,99947.16
2023-01-20T03:16:12.022Z,99951.47
2023-01-20T03:26:13.326Z,99963.66
2023-01-20T03:36:14.623Z,99974.81
2023-01-20T03:46:15.978Z,99995.47
2023-01-20T03:56:17.339Z,99999.66
2023-01-20T04:06:18.749Z,99999.44
2023-01-20T04:16:20.082Z,100008.06
2023-01-20T04:26:21.300Z,100018.22
2023-01-20T04:36:22.518Z,100025.84
2023-01-20T04:46:23.832Z,100035.00
2023-01-20T04:56:25.245Z,100037.56
2023-01-20T05:06:26.515Z,100046.66
2023-01-20T05:16:31.861Z,100051.78
2023-01-20T05:26:33.189Z,100061.19
2023-01-20T05:36:34.435Z,100078.25
2023-01-20T05:46:35.710Z,100094.56
2023-01-20T05:56:36.933Z,100100.72
2023-01-20T06:06:38.204Z,100111.84
2023-01-20T06:16:39.522Z,100128.19
2023-01-20T06:26:40.772Z,100136.94
2023-01-20T06:36:42.016Z,100147.66
2023-01-20T06:46:43.293Z,100158.47
2023-01-20T06:56:44.595Z,100176.22
2023-01-20T07:06:46.069Z,100186.19
2023-01-20T07:16:47.355Z,100201.38
2023-01-20T07:26:48.648Z,100211.50
2023-01-20T07:36:49.893Z,100221.91
2023-01-20T07:46:51.658Z,100234.25
2023-01-20T07:56:52.910Z,100255.22
2023-01-20T08:06:54.197Z,100261.84
2023-01-20T08:16:55.544Z,100286.41
2023-01-20T08:26:56.805Z,100287.94
2023-01-20T08:36:58.095Z,100287.81
2023-01-20T08:46:59.415Z,100307.41
2023-01-20T08:57:00.897Z,100311.28
2023-01-20T09:07:02.268Z,100323.81
2023-01-20T09:17:03.530Z,100331.09
2023-01-20T09:27:04.840Z,100334.63
2023-01-20T09:37:24.697Z,100349.72
2023-01-20T09:47:26.133Z,100358.59
2023-01-20T09:57:27.408Z,100353.66
2023-01-20T10:07:28.698Z,100358.88
2023-01-20T10:17:30.030Z,100367.91
2023-01-20T10:27:31.274Z,100365.22
2023-01-20T10:37:32.490Z,100361.16
2023-01-20T10:47:33.759Z,100371.38
2023-01-20T10:57:36.176Z,100375.38
2023-01-20T11:07:37.571Z,100376.78
2023-01-20T11:17:38.791Z,100373.88
2023-01-20T11:27:40.054Z,100366.72
2023-01-20T11:37:41.371Z,100371.19
2023-01-20T11:47:42.757Z,100373.63
2023-01-20T11:57:44.730Z,100376.81
2023-01-20T12:07:46.085Z,100375.09
2023-01-20T12:17:47.372Z,100377.56
2023-01-20T12:27:48.968Z,100386.88
2023-01-20T12:37:50.183Z,100389.50
2023-01-20T12:47:51.406Z,100382.97
2023-01-20T12:57:52.666Z,100388.03
2023-01-20T13:07:56.082Z,100378.19
2023-01-20T13:17:57.335Z,100381.56
2023-01-20T13:27:58.631Z,100385.19
2023-01-20T13:37:59.867Z,100380.72
2023-01-20T14:08:51.459Z,100402.94
2023-01-20T14:18:52.723Z,100415.06
2023-01-20T14:28:54.019Z,100418.47
2023-01-20T14:38:58.321Z,100426.22
2023-01-20T14:49:00.214Z,100422.69
2023-01-20T14:59:01.519Z,100426.00
2023-01-20T15:09:07.184Z,100427.56
2023-01-20T15:19:09.807Z,100438.31
2023-01-20T15:29:12.018Z,100436.19
2023-01-20T15:39:13.273Z,100441.16
2023-01-20T15:49:17.255Z,100452.28
2023-01-20T15:59:18.520Z,100455.53
2023-01-20T16:09:19.825Z,100460.59
2023-01-20T16:19:21.064Z,100472.63
2023-01-20T16:29:22.288Z,100475.97
2023-01-20T16:39:23.526Z,100481.16
2023-01-20T16:49:24.783Z,100486.41
2023-01-20T16:59:26.060Z,100485.53
2023-01-20T17:09:27.361Z,100500.97
2023-01-20T17:19:28.619Z,100505.28
2023-01-20T17:29:29.827Z,100514.72
2023-01-20T17:39:31.064Z,100515.59
2023-01-20T17:49:32.318Z,100532.03
2023-01-20T17:59:33.542Z,100524.31
2023-01-20T18:09:35.057Z,100533.84
2023-01-20T18:19:36.359Z,100550.22
2023-01-20T18:29:37.586Z,100572.94
2023-01-20T18:39:38.862Z,100582.19
2023-01-20T18:49:40.100Z,100584.78
2023-01-20T18:59:42.301Z,100580.25
2023-01-20T19:09:43.790Z,100580.19
2023-01-20T19:19:49.433Z,100575.78
2023-01-20T19:29:50.659Z,100577.59
2023-01-20T19:39:52.043Z,100596.53
2023-01-20T19:49:53.319Z,100591.31
2023-01-20T19:59:54.709Z,100599.63
2023-01-20T20:09:55.920Z,100598.66
2023-01-20T20:19:57.255Z,100595.84
2023-01-20T20:30:01.205Z,100595.69
2023-01-20T20:40:02.484Z,100599.16
2023-01-20T20:50:03.714Z,100606.84
2023-01-20T21:00:05.197Z,100603.28
2023-01-20T21:10:06.504Z,100612.72
2023-01-20T21:20:07.750Z,100616.09
2023-01-20T21:30:08.967Z,100616.97
2023-01-20T21:40:10.242Z,100622.13
2023-01-20T21:50:30.095Z,100635.09
2023-01-20T22:00:31.363Z,100636.03
2023-01-20T22:10:32.798Z,100637.78
2023-01-20T22:20:34.857Z,100656.41
2023-01-20T22:30:36.142Z,100681.28
2023-01-20T22:40:37.428Z,100680.25
2023-01-20T22:50:38.651Z,100687.09
2023-01-20T23:00:39.891Z,100682.69
2023-01-20T23:10:47.116Z,100693.84
2023-01-20T23:20:48.407Z,100693.72
2023-01-20T23:30:49.688Z,100699.78
2023-01-20T23:40:50.976Z,100703.97
2023-01-20T23:50:52.229Z,100722.97
